sensor_id;sensor_type;location;lat;lon;timestamp;temperature;humidity
20498;DHT22;10407;53.238;10.448;2023-02-27T00:02:00;-0.30;99.90
20498;DHT22;10407;53.238;10.448;2023-02-27T00:04:28;-0.40;99.90
20498;DHT22;10407;53.238;10.448;2023-02-27T00:06:55;-0.40;99.90
20498;DHT22;10407;53.238;10.448;2023-02-27T00:09:23;-0.30;99.90
20498;DHT22;10407;53.238;10.448;2023-02-27T00:11:50;-0.30;99.90
20498;DHT22;10407;53.238;10.448;2023-02-27T00:14:18;-0.40;99.90
20498;DHT22;10407;53.238;10.448;2023-02-27T00:16:45;-0.30;99.90
20498;DHT22;10407;53.238;10.448;2023-02-27T00:19:13;-0.40;99.90
20498;DHT22;10407;53.238;10.448;2023-02-27T00:21:41;-0.60;99.90
20498;DHT22;10407;53.238;10.448;2023-02-27T00:24:10;-0.60;99.90
20498;DHT22;10407;53.238;10.448;2023-02-27T00:26:38;-0.70;99.90
20498;DHT22;10407;53.238;10.448;2023-02-27T00:29:06;-0.60;99.90
20498;DHT22;10407;53.238;10.448;2023-02-27T00:31:33;-0.70;99.90
20498;DHT22;10407;53.238;10.448;2023-02-27T00:34:01;-0.60;99.90
20498;DHT22;10407;53.238;10.448;2023-02-27T00:36:29;-0.60;99.90
20498;DHT22;10407;53.238;10.448;2023-02-27T00:38:57;-0.80;99.90
20498;DHT22;10407;53.238;10.448;2023-02-27T00:41:25;-0.50;99.90
20498;DHT22;10407;53.238;10.448;2023-02-27T00:43:52;-0.40;99.90
20498;DHT22;10407;53.238;10.448;2023-02-27T00:46:19;-0.80;99.90
20498;DHT22;10407;53.238;10.448;2023-02-27T00:48:47;-0.60;99.90
20498;DHT22;10407;53.238;10.448;2023-02-27T00:51:15;-0.60;99.90
20498;DHT22;10407;53.238;10.448;2023-02-27T00:53:44;-0.60;99.90
20498;DHT22;10407;53.238;10.448;2023-02-27T00:56:11;-1.00;99.90
20498;DHT22;10407;53.238;10.448;2023-02-27T00:58:39;-1.00;99.90
20498;DHT22;10407;53.238;10.448;2023-02-27T01:01:07;-1.00;99.90
20498;DHT22;10407;53.238;10.448;2023-02-27T01:03:34;-0.80;99.90
20498;DHT22;10407;53.238;10.448;2023-02-27T01:06:02;-0.90;99.90
20498;DHT22;10407;53.238;10.448;2023-02-27T01:08:29;-0.80;99.90
20498;DHT22;10407;53.238;10.448;2023-02-27T01:10:57;-0.50;99.90
20498;DHT22;10407;53.238;10.448;2023-02-27T01:13:24;-0.90;99.90
20498;DHT22;10407;53.238;10.448;2023-02-27T01:15:52;-0.80;99.90
20498;DHT22;10407;53.238;10.448;2023-02-27T01:18:20;-1.10;99.90
20498;DHT22;10407;53.238;10.448;2023-02-27T01:20:52;-1.00;99.90
20498;DHT22;10407;53.238;10.448;2023-02-27T01:23:21;-0.90;99.90
20498;DHT22;10407;53.238;10.448;2023-02-27T01:25:49;-0.80;99.90
20498;DHT22;10407;53.238;10.448;2023-02-27T01:28:16;-0.90;99.90
20498;DHT22;10407;53.238;10.448;2023-02-27T01:30:44;-0.80;99.90
20498;DHT22;10407;53.238;10.448;2023-02-27T01:33:11;-0.90;99.90
20498;DHT22;10407;53.238;10.448;2023-02-27T01:35:39;-0.90;99.90
20498;DHT22;10407;53.238;10.448;2023-02-27T01:38:07;-0.90;99.90
20498;DHT22;10407;53.238;10.448;2023-02-27T01:40:36;-1.10;99.90
20498;DHT22;10407;53.238;10.448;2023-02-27T01:43:05;-1.10;99.90
20498;DHT22;10407;53.238;10.448;2023-02-27T01:45:36;-1.10;99.90
20498;DHT22;10407;53.238;10.448;2023-02-27T01:48:12;-1.00;99.90
20498;DHT22;10407;53.238;10.448;2023-02-27T01:50:43;-1.10;99.90
20498;DHT22;10407;53.238;10.448;2023-02-27T01:53:18;-1.10;99.90
20498;DHT22;10407;53.238;10.448;2023-02-27T01:55:47;-1.20;99.90
20498;DHT22;10407;53.238;10.448;2023-02-27T01:58:15;-1.30;99.90
20498;DHT22;10407;53.238;10.448;2023-02-27T02:00:43;-1.20;99.90
20498;DHT22;10407;53.238;10.448;2023-02-27T02:03:15;-1.10;99.90
20498;DHT22;10407;53.238;10.448;2023-02-27T02:05:42;-1.20;99.90
20498;DHT22;10407;53.238;10.448;2023-02-27T02:08:11;-1.10;99.90
20498;DHT22;10407;53.238;10.448;2023-02-27T02:10:40;-1.60;99.90
20498;DHT22;10407;53.238;10.448;2023-02-27T02:13:08;-1.20;99.90
20498;DHT22;10407;53.238;10.448;2023-02-27T02:15:38;-1.40;99.90
20498;DHT22;10407;53.238;10.448;2023-02-27T02:18:18;-1.50;99.90
20498;DHT22;10407;53.238;10.448;2023-02-27T02:21:11;-1.30;99.90
20498;DHT22;10407;53.238;10.448;2023-02-27T02:27:01;-1.10;99.90
20498;DHT22;10407;53.238;10.448;2023-02-27T02:38:18;-1.20;99.90
20498;DHT22;10407;53.238;10.448;2023-02-27T02:41:13;-1.10;99.90
20498;DHT22;10407;53.238;10.448;2023-02-27T02:51:41;-1.20;99.90
20498;DHT22;10407;53.238;10.448;2023-02-27T02:54:16;-1.20;99.90
20498;DHT22;10407;53.238;10.448;2023-02-27T02:56:49;-1.20;99.90
20498;DHT22;10407;53.238;10.448;2023-02-27T02:59:36;-1.30;99.90
20498;DHT22;10407;53.238;10.448;2023-02-27T03:02:02;-1.30;99.90
20498;DHT22;10407;53.238;10.448;2023-02-27T03:04:35;-1.60;99.90
20498;DHT22;10407;53.238;10.448;2023-02-27T03:07:11;-1.50;99.90
20498;DHT22;10407;53.238;10.448;2023-02-27T03:09:40;-1.50;99.90
20498;DHT22;10407;53.238;10.448;2023-02-27T03:12:11;-1.40;99.90
20498;DHT22;10407;53.238;10.448;2023-02-27T03:14:47;-1.60;99.90
20498;DHT22;10407;53.238;10.448;2023-02-27T03:18:17;-1.50;99.90
20498;DHT22;10407;53.238;10.448;2023-02-27T03:20:03;-1.50;99.90
20498;DHT22;10407;53.238;10.448;2023-02-27T03:22:36;-1.40;99.90
20498;DHT22;10407;53.238;10.448;2023-02-27T03:25:06;-1.40;99.90
20498;DHT22;10407;53.238;10.448;2023-02-27T03:27:38;-1.40;99.90
20498;DHT22;10407;53.238;10.448;2023-02-27T03:30:16;-1.50;99.90
20498;DHT22;10407;53.238;10.448;2023-02-27T03:33:00;-1.50;99.90
20498;DHT22;10407;53.238;10.448;2023-02-27T03:35:40;-1.50;99.90
20498;DHT22;10407;53.238;10.448;2023-02-27T03:38:14;-1.50;99.90
20498;DHT22;10407;53.238;10.448;2023-02-27T03:43:26;-1.80;99.90
20498;DHT22;10407;53.238;10.448;2023-02-27T03:45:59;-1.80;99.90
20498;DHT22;10407;53.238;10.448;2023-02-27T03:48:25;-1.60;99.90
20498;DHT22;10407;53.238;10.448;2023-02-27T03:50:53;-1.60;99.90
20498;DHT22;10407;53.238;10.448;2023-02-27T03:53:27;-1.60;99.90
20498;DHT22;10407;53.238;10.448;2023-02-27T03:55:51;-1.50;99.90
20498;DHT22;10407;53.238;10.448;2023-02-27T03:58:19;-1.60;99.90
20498;DHT22;10407;53.238;10.448;2023-02-27T04:00:47;-1.60;99.90
20498;DHT22;10407;53.238;10.448;2023-02-27T04:03:15;-1.70;99.90
20498;DHT22;10407;53.238;10.448;2023-02-27T04:05:42;-1.70;99.90
20498;DHT22;10407;53.238;10.448;2023-02-27T04:11:12;-1.70;99.90
20498;DHT22;10407;53.238;10.448;2023-02-27T04:13:43;-1.80;99.90
20498;DHT22;10407;53.238;10.448;2023-02-27T04:16:29;-1.60;99.90
20498;DHT22;10407;53.238;10.448;2023-02-27T04:24:59;-1.60;99.90
20498;DHT22;10407;53.238;10.448;2023-02-27T04:27:38;-1.60;99.90
20498;DHT22;10407;53.238;10.448;2023-02-27T04:33:02;-1.70;99.90
20498;DHT22;10407;53.238;10.448;2023-02-27T04:35:46;-1.70;99.90
20498;DHT22;10407;53.238;10.448;2023-02-27T04:41:12;-1.70;99.90
20498;DHT22;10407;53.238;10.448;2023-02-27T04:43:38;-1.80;99.90
20498;DHT22;10407;53.238;10.448;2023-02-27T04:46:09;-1.70;99.90
20498;DHT22;10407;53.238;10.448;2023-02-27T04:48:48;-1.70;99.90
20498;DHT22;10407;53.238;10.448;2023-02-27T04:51:16;-1.70;99.90
20498;DHT22;10407;53.238;10.448;2023-02-27T04:53:59;-1.70;99.90
20498;DHT22;10407;53.238;10.448;2023-02-27T04:56:39;-1.90;99.90
20498;DHT22;10407;53.238;10.448;2023-02-27T04:59:15;-1.90;99.90
20498;DHT22;10407;53.238;10.448;2023-02-27T05:01:42;-1.90;99.90
20498;DHT22;10407;53.238;10.448;2023-02-27T05:04:13;-1.90;99.90
20498;DHT22;10407;53.238;10.448;2023-02-27T05:06:43;-1.80;99.90
20498;DHT22;10407;53.238;10.448;2023-02-27T05:12:09;-2.00;99.90
20498;DHT22;10407;53.238;10.448;2023-02-27T05:14:44;-1.90;99.90
20498;DHT22;10407;53.238;10.448;2023-02-27T05:17:10;-1.80;99.90
20498;DHT22;10407;53.238;10.448;2023-02-27T05:19:39;-1.80;99.90
20498;DHT22;10407;53.238;10.448;2023-02-27T05:22:21;-1.70;99.90
20498;DHT22;10407;53.238;10.448;2023-02-27T05:24:53;-1.80;99.90
20498;DHT22;10407;53.238;10.448;2023-02-27T05:27:29;-1.90;99.90
20498;DHT22;10407;53.238;10.448;2023-02-27T05:32:46;-2.00;99.90
20498;DHT22;10407;53.238;10.448;2023-02-27T05:35:25;-1.90;99.90
20498;DHT22;10407;53.238;10.448;2023-02-27T05:38:04;-1.90;99.90
20498;DHT22;10407;53.238;10.448;2023-02-27T05:40:39;-1.90;99.90
20498;DHT22;10407;53.238;10.448;2023-02-27T05:43:27;-1.90;99.90
20498;DHT22;10407;53.238;10.448;2023-02-27T05:45:55;-1.90;99.90
20498;DHT22;10407;53.238;10.448;2023-02-27T05:48:29;-1.80;99.90
20498;DHT22;10407;53.238;10.448;2023-02-27T05:50:57;-2.00;99.90
20498;DHT22;10407;53.238;10.448;2023-02-27T05:53:28;-1.90;99.90
20498;DHT22;10407;53.238;10.448;2023-02-27T05:55:57;-2.00;99.90
20498;DHT22;10407;53.238;10.448;2023-02-27T05:58:28;-2.00;99.90
20498;DHT22;10407;53.238;10.448;2023-02-27T06:01:01;-1.90;99.90
20498;DHT22;10407;53.238;10.448;2023-02-27T06:03:32;-2.00;99.90
20498;DHT22;10407;53.238;10.448;2023-02-27T06:06:19;-2.00;99.90
20498;DHT22;10407;53.238;10.448;2023-02-27T06:08:48;-2.00;99.90
20498;DHT22;10407;53.238;10.448;2023-02-27T06:11:16;-1.80;99.90
20498;DHT22;10407;53.238;10.448;2023-02-27T06:13:44;-1.90;99.90
20498;DHT22;10407;53.238;10.448;2023-02-27T06:16:12;-1.90;99.90
20498;DHT22;10407;53.238;10.448;2023-02-27T06:18:41;-2.00;99.90
20498;DHT22;10407;53.238;10.448;2023-02-27T06:21:12;-1.90;99.90
20498;DHT22;10407;53.238;10.448;2023-02-27T06:23:37;-1.90;99.90
20498;DHT22;10407;53.238;10.448;2023-02-27T06:26:05;-1.70;99.90
20498;DHT22;10407;53.238;10.448;2023-02-27T06:28:33;-1.80;99.90
20498;DHT22;10407;53.238;10.448;2023-02-27T06:31:00;-1.80;99.90
20498;DHT22;10407;53.238;10.448;2023-02-27T06:33:28;-1.90;99.90
20498;DHT22;10407;53.238;10.448;2023-02-27T06:35:56;-1.70;99.90
20498;DHT22;10407;53.238;10.448;2023-02-27T06:38:24;-1.70;99.90
20498;DHT22;10407;53.238;10.448;2023-02-27T06:40:52;-1.60;99.90
20498;DHT22;10407;53.238;10.448;2023-02-27T06:43:19;-1.40;99.90
20498;DHT22;10407;53.238;10.448;2023-02-27T06:45:51;-1.20;99.90
20498;DHT22;10407;53.238;10.448;2023-02-27T06:48:18;-1.00;99.90
20498;DHT22;10407;53.238;10.448;2023-02-27T06:50:49;-0.80;99.90
20498;DHT22;10407;53.238;10.448;2023-02-27T06:53:14;-0.50;99.90
20498;DHT22;10407;53.238;10.448;2023-02-27T06:55:42;-0.60;99.90
20498;DHT22;10407;53.238;10.448;2023-02-27T06:58:09;-0.60;99.90
20498;DHT22;10407;53.238;10.448;2023-02-27T07:00:37;-0.20;99.90
20498;DHT22;10407;53.238;10.448;2023-02-27T07:03:04;0.30;99.90
20498;DHT22;10407;53.238;10.448;2023-02-27T07:05:32;0.40;99.90
20498;DHT22;10407;53.238;10.448;2023-02-27T07:08:00;0.40;99.90
20498;DHT22;10407;53.238;10.448;2023-02-27T07:10:29;0.60;99.90
20498;DHT22;10407;53.238;10.448;2023-02-27T07:12:57;1.20;99.90
20498;DHT22;10407;53.238;10.448;2023-02-27T07:15:24;1.20;99.90
20498;DHT22;10407;53.238;10.448;2023-02-27T07:17:52;1.40;99.90
20498;DHT22;10407;53.238;10.448;2023-02-27T07:20:20;1.90;99.90
20498;DHT22;10407;53.238;10.448;2023-02-27T07:22:47;2.30;99.90
20498;DHT22;10407;53.238;10.448;2023-02-27T07:25:15;2.40;99.90
20498;DHT22;10407;53.238;10.448;2023-02-27T07:27:42;2.50;99.90
20498;DHT22;10407;53.238;10.448;2023-02-27T07:30:11;2.80;99.90
20498;DHT22;10407;53.238;10.448;2023-02-27T07:32:39;3.10;99.90
20498;DHT22;10407;53.238;10.448;2023-02-27T07:35:07;3.30;99.90
20498;DHT22;10407;53.238;10.448;2023-02-27T07:37:35;3.40;99.90
20498;DHT22;10407;53.238;10.448;2023-02-27T07:40:04;3.60;99.90
20498;DHT22;10407;53.238;10.448;2023-02-27T07:42:33;3.40;99.90
20498;DHT22;10407;53.238;10.448;2023-02-27T07:45:00;3.80;99.90
20498;DHT22;10407;53.238;10.448;2023-02-27T07:47:28;3.80;99.90
20498;DHT22;10407;53.238;10.448;2023-02-27T07:49:55;4.20;99.90
20498;DHT22;10407;53.238;10.448;2023-02-27T07:52:23;4.50;99.90
20498;DHT22;10407;53.238;10.448;2023-02-27T07:54:51;4.60;99.90
20498;DHT22;10407;53.238;10.448;2023-02-27T07:57:18;4.50;99.90
20498;DHT22;10407;53.238;10.448;2023-02-27T07:59:46;4.60;99.90
20498;DHT22;10407;53.238;10.448;2023-02-27T08:02:14;4.80;99.90
20498;DHT22;10407;53.238;10.448;2023-02-27T08:04:41;4.30;99.90
20498;DHT22;10407;53.238;10.448;2023-02-27T08:07:09;4.10;99.90
20498;DHT22;10407;53.238;10.448;2023-02-27T08:09:36;3.30;99.90
20498;DHT22;10407;53.238;10.448;2023-02-27T08:12:04;4.60;99.90
20498;DHT22;10407;53.238;10.448;2023-02-27T08:14:32;5.50;99.90
20498;DHT22;10407;53.238;10.448;2023-02-27T08:16:59;6.00;99.90
20498;DHT22;10407;53.238;10.448;2023-02-27T08:19:27;6.10;99.90
20498;DHT22;10407;53.238;10.448;2023-02-27T08:21:54;6.20;99.90
20498;DHT22;10407;53.238;10.448;2023-02-27T08:24:22;6.30;99.90
20498;DHT22;10407;53.238;10.448;2023-02-27T08:26:49;6.30;99.90
20498;DHT22;10407;53.238;10.448;2023-02-27T08:29:17;6.10;99.90
20498;DHT22;10407;53.238;10.448;2023-02-27T08:31:44;5.80;99.90
20498;DHT22;10407;53.238;10.448;2023-02-27T08:34:12;5.90;99.90
20498;DHT22;10407;53.238;10.448;2023-02-27T08:36:40;6.20;99.90
20498;DHT22;10407;53.238;10.448;2023-02-27T08:39:08;6.10;99.90
20498;DHT22;10407;53.238;10.448;2023-02-27T08:41:35;6.10;99.90
20498;DHT22;10407;53.238;10.448;2023-02-27T08:44:03;6.30;99.90
20498;DHT22;10407;53.238;10.448;2023-02-27T08:46:31;6.80;99.90
20498;DHT22;10407;53.238;10.448;2023-02-27T08:48:58;7.10;99.90
20498;DHT22;10407;53.238;10.448;2023-02-27T08:51:26;7.40;99.90
20498;DHT22;10407;53.238;10.448;2023-02-27T08:53:54;7.30;99.90
20498;DHT22;10407;53.238;10.448;2023-02-27T08:56:23;7.50;99.90
20498;DHT22;10407;53.238;10.448;2023-02-27T08:58:52;6.70;99.90
20498;DHT22;10407;53.238;10.448;2023-02-27T09:01:19;7.00;99.90
20498;DHT22;10407;53.238;10.448;2023-02-27T09:03:47;6.90;99.90
20498;DHT22;10407;53.238;10.448;2023-02-27T09:06:14;7.30;99.90
20498;DHT22;10407;53.238;10.448;2023-02-27T09:08:42;6.40;99.90
20498;DHT22;10407;53.238;10.448;2023-02-27T09:11:09;6.10;99.90
20498;DHT22;10407;53.238;10.448;2023-02-27T09:13:37;5.80;99.90
20498;DHT22;10407;53.238;10.448;2023-02-27T09:16:05;6.50;99.90
20498;DHT22;10407;53.238;10.448;2023-02-27T09:18:33;6.60;99.90
20498;DHT22;10407;53.238;10.448;2023-02-27T09:21:01;6.40;99.90
20498;DHT22;10407;53.238;10.448;2023-02-27T09:23:28;6.60;99.90
20498;DHT22;10407;53.238;10.448;2023-02-27T09:25:56;7.10;99.90
20498;DHT22;10407;53.238;10.448;2023-02-27T09:28:23;6.20;99.90
20498;DHT22;10407;53.238;10.448;2023-02-27T09:30:51;6.60;99.90
20498;DHT22;10407;53.238;10.448;2023-02-27T09:33:19;6.60;99.90
20498;DHT22;10407;53.238;10.448;2023-02-27T09:35:46;5.90;99.90
20498;DHT22;10407;53.238;10.448;2023-02-27T09:38:14;4.90;99.90
20498;DHT22;10407;53.238;10.448;2023-02-27T09:40:42;5.00;99.90
20498;DHT22;10407;53.238;10.448;2023-02-27T09:43:19;5.20;99.90
20498;DHT22;10407;53.238;10.448;2023-02-27T09:45:52;6.00;99.90
20498;DHT22;10407;53.238;10.448;2023-02-27T09:51:03;7.10;99.90
20498;DHT22;10407;53.238;10.448;2023-02-27T09:53:33;7.60;99.90
20498;DHT22;10407;53.238;10.448;2023-02-27T09:56:16;6.80;99.90
20498;DHT22;10407;53.238;10.448;2023-02-27T10:07:11;7.00;99.90
20498;DHT22;10407;53.238;10.448;2023-02-27T10:09:43;6.00;99.90
20498;DHT22;10407;53.238;10.448;2023-02-27T10:15:23;6.10;99.90
20498;DHT22;10407;53.238;10.448;2023-02-27T10:17:36;5.50;99.90
20498;DHT22;10407;53.238;10.448;2023-02-27T10:20:16;5.40;99.90
20498;DHT22;10407;53.238;10.448;2023-02-27T10:22:39;5.70;99.90
20498;DHT22;10407;53.238;10.448;2023-02-27T10:25:18;5.70;99.90
20498;DHT22;10407;53.238;10.448;2023-02-27T10:27:48;5.50;99.90
20498;DHT22;10407;53.238;10.448;2023-02-27T10:30:19;5.90;99.90
20498;DHT22;10407;53.238;10.448;2023-02-27T10:33:06;6.10;99.90
20498;DHT22;10407;53.238;10.448;2023-02-27T10:35:35;5.10;99.90
20498;DHT22;10407;53.238;10.448;2023-02-27T10:38:18;5.80;99.90
20498;DHT22;10407;53.238;10.448;2023-02-27T10:40:47;5.60;99.90
20498;DHT22;10407;53.238;10.448;2023-02-27T10:43:16;6.60;99.90
20498;DHT22;10407;53.238;10.448;2023-02-27T10:45:44;7.60;99.90
20498;DHT22;10407;53.238;10.448;2023-02-27T10:48:12;6.90;99.90
20498;DHT22;10407;53.238;10.448;2023-02-27T10:50:47;7.20;99.90
20498;DHT22;10407;53.238;10.448;2023-02-27T10:53:20;7.30;99.90
20498;DHT22;10407;53.238;10.448;2023-02-27T10:56:03;6.60;99.90
20498;DHT22;10407;53.238;10.448;2023-02-27T10:58:29;7.10;99.90
20498;DHT22;10407;53.238;10.448;2023-02-27T11:01:03;6.70;99.90
20498;DHT22;10407;53.238;10.448;2023-02-27T11:03:40;6.60;99.90
20498;DHT22;10407;53.238;10.448;2023-02-27T11:06:11;7.10;99.90
20498;DHT22;10407;53.238;10.448;2023-02-27T11:08:35;6.80;99.90
20498;DHT22;10407;53.238;10.448;2023-02-27T11:11:05;6.60;99.90
20498;DHT22;10407;53.238;10.448;2023-02-27T11:13:40;6.70;99.90
20498;DHT22;10407;53.238;10.448;2023-02-27T11:16:15;7.50;99.90
20498;DHT22;10407;53.238;10.448;2023-02-27T11:18:45;7.30;99.90
20498;DHT22;10407;53.238;10.448;2023-02-27T11:21:19;7.60;99.90
20498;DHT22;10407;53.238;10.448;2023-02-27T11:24:03;7.20;99.90
20498;DHT22;10407;53.238;10.448;2023-02-27T11:26:38;7.40;99.90
20498;DHT22;10407;53.238;10.448;2023-02-27T11:29:17;7.30;99.90
20498;DHT22;10407;53.238;10.448;2023-02-27T11:31:53;6.70;99.90
20498;DHT22;10407;53.238;10.448;2023-02-27T11:34:29;6.50;99.90
20498;DHT22;10407;53.238;10.448;2023-02-27T11:37:01;6.60;99.90
20498;DHT22;10407;53.238;10.448;2023-02-27T11:39:32;6.90;99.90
20498;DHT22;10407;53.238;10.448;2023-02-27T11:42:35;6.80;99.90
20498;DHT22;10407;53.238;10.448;2023-02-27T11:44:36;7.50;99.90
20498;DHT22;10407;53.238;10.448;2023-02-27T11:47:13;7.40;99.90
20498;DHT22;10407;53.238;10.448;2023-02-27T11:49:57;6.80;99.90
20498;DHT22;10407;53.238;10.448;2023-02-27T11:52:23;6.30;99.90
20498;DHT22;10407;53.238;10.448;2023-02-27T11:54:56;6.00;99.90
20498;DHT22;10407;53.238;10.448;2023-02-27T11:57:27;6.50;99.90
20498;DHT22;10407;53.238;10.448;2023-02-27T12:05:50;6.90;99.90
20498;DHT22;10407;53.238;10.448;2023-02-27T12:08:40;6.50;99.90
20498;DHT22;10407;53.238;10.448;2023-02-27T12:11:23;6.20;99.90
20498;DHT22;10407;53.238;10.448;2023-02-27T12:14:10;6.40;99.90
20498;DHT22;10407;53.238;10.448;2023-02-27T12:16:49;6.40;99.90
20498;DHT22;10407;53.238;10.448;2023-02-27T12:19:29;6.30;99.90
20498;DHT22;10407;53.238;10.448;2023-02-27T12:22:10;6.20;99.90
20498;DHT22;10407;53.238;10.448;2023-02-27T12:25:01;6.10;99.90
20498;DHT22;10407;53.238;10.448;2023-02-27T12:27:28;5.90;99.90
20498;DHT22;10407;53.238;10.448;2023-02-27T12:30:06;6.00;99.90
20498;DHT22;10407;53.238;10.448;2023-02-27T12:32:41;6.10;99.90
20498;DHT22;10407;53.238;10.448;2023-02-27T12:35:19;5.50;99.90
20498;DHT22;10407;53.238;10.448;2023-02-27T12:37:46;5.60;99.90
20498;DHT22;10407;53.238;10.448;2023-02-27T12:40:16;5.60;99.90
20498;DHT22;10407;53.238;10.448;2023-02-27T12:43:04;5.90;99.90
20498;DHT22;10407;53.238;10.448;2023-02-27T12:51:36;6.10;99.90
20498;DHT22;10407;53.238;10.448;2023-02-27T12:54:14;6.00;99.90
20498;DHT22;10407;53.238;10.448;2023-02-27T13:02:35;5.30;99.90
20498;DHT22;10407;53.238;10.448;2023-02-27T13:05:14;5.70;99.90
20498;DHT22;10407;53.238;10.448;2023-02-27T13:08:59;5.90;99.90
20498;DHT22;10407;53.238;10.448;2023-02-27T13:13:19;5.60;99.90
20498;DHT22;10407;53.238;10.448;2023-02-27T13:15:49;6.20;99.90
20498;DHT22;10407;53.238;10.448;2023-02-27T13:18:31;6.60;99.90
20498;DHT22;10407;53.238;10.448;2023-02-27T13:21:12;6.60;99.90
20498;DHT22;10407;53.238;10.448;2023-02-27T13:23:56;5.90;99.90
20498;DHT22;10407;53.238;10.448;2023-02-27T13:26:29;5.40;99.90
20498;DHT22;10407;53.238;10.448;2023-02-27T13:28:57;5.70;99.90
20498;DHT22;10407;53.238;10.448;2023-02-27T13:37:05;6.50;99.90
20498;DHT22;10407;53.238;10.448;2023-02-27T13:44:58;6.90;99.90
20498;DHT22;10407;53.238;10.448;2023-02-27T13:47:37;7.10;99.90
20498;DHT22;10407;53.238;10.448;2023-02-27T13:52:49;6.80;99.90
20498;DHT22;10407;53.238;10.448;2023-02-27T13:55:31;6.10;99.90
20498;DHT22;10407;53.238;10.448;2023-02-27T13:58:03;6.70;99.90
20498;DHT22;10407;53.238;10.448;2023-02-27T14:00:33;6.70;99.90
20498;DHT22;10407;53.238;10.448;2023-02-27T14:03:20;6.20;99.90
20498;DHT22;10407;53.238;10.448;2023-02-27T14:05:51;5.90;99.90
20498;DHT22;10407;53.238;10.448;2023-02-27T14:08:25;5.90;99.90
20498;DHT22;10407;53.238;10.448;2023-02-27T14:10:59;6.00;99.90
20498;DHT22;10407;53.238;10.448;2023-02-27T14:22:31;5.70;99.90
20498;DHT22;10407;53.238;10.448;2023-02-27T14:24:44;5.70;99.90
20498;DHT22;10407;53.238;10.448;2023-02-27T14:29:47;6.00;99.90
20498;DHT22;10407;53.238;10.448;2023-02-27T14:32:24;6.00;99.90
20498;DHT22;10407;53.238;10.448;2023-02-27T14:34:48;6.30;99.90
20498;DHT22;10407;53.238;10.448;2023-02-27T14:37:18;5.80;99.90
20498;DHT22;10407;53.238;10.448;2023-02-27T14:39:50;5.90;99.90
20498;DHT22;10407;53.238;10.448;2023-02-27T14:45:19;6.10;99.90
20498;DHT22;10407;53.238;10.448;2023-02-27T14:47:43;6.20;99.90
20498;DHT22;10407;53.238;10.448;2023-02-27T14:50:31;6.10;99.90
20498;DHT22;10407;53.238;10.448;2023-02-27T14:52:50;6.10;99.90
20498;DHT22;10407;53.238;10.448;2023-02-27T14:55:26;6.10;99.90
20498;DHT22;10407;53.238;10.448;2023-02-27T14:58:08;5.80;99.90
20498;DHT22;10407;53.238;10.448;2023-02-27T15:00:41;5.90;98.50
20498;DHT22;10407;53.238;10.448;2023-02-27T15:03:21;6.10;99.00
20498;DHT22;10407;53.238;10.448;2023-02-27T15:05:47;6.00;98.30
20498;DHT22;10407;53.238;10.448;2023-02-27T15:08:20;6.10;97.70
20498;DHT22;10407;53.238;10.448;2023-02-27T15:10:50;5.80;97.80
20498;DHT22;10407;53.238;10.448;2023-02-27T15:13:27;6.00;98.00
20498;DHT22;10407;53.238;10.448;2023-02-27T15:16:17;6.00;98.40
20498;DHT22;10407;53.238;10.448;2023-02-27T15:18:51;5.90;98.20
20498;DHT22;10407;53.238;10.448;2023-02-27T15:21:21;6.30;99.70
20498;DHT22;10407;53.238;10.448;2023-02-27T15:24:01;6.60;98.10
20498;DHT22;10407;53.238;10.448;2023-02-27T15:26:39;6.20;98.70
20498;DHT22;10407;53.238;10.448;2023-02-27T15:29:05;6.10;99.70
20498;DHT22;10407;53.238;10.448;2023-02-27T15:31:33;5.90;99.90
20498;DHT22;10407;53.238;10.448;2023-02-27T15:34:02;6.10;99.90
20498;DHT22;10407;53.238;10.448;2023-02-27T15:36:34;6.10;99.90
20498;DHT22;10407;53.238;10.448;2023-02-27T15:39:15;6.10;99.90
20498;DHT22;10407;53.238;10.448;2023-02-27T15:41:54;5.80;99.80
20498;DHT22;10407;53.238;10.448;2023-02-27T15:44:43;5.70;99.90
20498;DHT22;10407;53.238;10.448;2023-02-27T15:47:17;5.70;99.90
20498;DHT22;10407;53.238;10.448;2023-02-27T15:49:41;5.70;99.50
20498;DHT22;10407;53.238;10.448;2023-02-27T15:52:24;5.60;99.90
20498;DHT22;10407;53.238;10.448;2023-02-27T15:54:58;5.60;98.80
20498;DHT22;10407;53.238;10.448;2023-02-27T15:57:43;5.70;99.30
20498;DHT22;10407;53.238;10.448;2023-02-27T16:00:12;5.70;99.90
20498;DHT22;10407;53.238;10.448;2023-02-27T16:02:49;5.80;99.90
20498;DHT22;10407;53.238;10.448;2023-02-27T16:05:35;5.70;99.90
20498;DHT22;10407;53.238;10.448;2023-02-27T16:08:04;5.80;99.90
20498;DHT22;10407;53.238;10.448;2023-02-27T16:10:40;5.70;99.90
20498;DHT22;10407;53.238;10.448;2023-02-27T16:16:02;5.60;99.90
20498;DHT22;10407;53.238;10.448;2023-02-27T16:21:10;5.60;99.90
20498;DHT22;10407;53.238;10.448;2023-02-27T16:23:38;5.80;99.90
20498;DHT22;10407;53.238;10.448;2023-02-27T16:26:20;5.70;99.90
20498;DHT22;10407;53.238;10.448;2023-02-27T16:29:26;5.70;99.90
20498;DHT22;10407;53.238;10.448;2023-02-27T16:31:50;5.60;99.90
20498;DHT22;10407;53.238;10.448;2023-02-27T16:34:36;5.50;99.90
20498;DHT22;10407;53.238;10.448;2023-02-27T16:37:15;5.30;99.90
20498;DHT22;10407;53.238;10.448;2023-02-27T16:39:35;5.10;99.90
20498;DHT22;10407;53.238;10.448;2023-02-27T16:42:03;5.10;99.90
20498;DHT22;10407;53.238;10.448;2023-02-27T16:44:30;5.10;99.90
20498;DHT22;10407;53.238;10.448;2023-02-27T16:46:58;5.00;99.90
20498;DHT22;10407;53.238;10.448;2023-02-27T16:49:28;5.00;99.90
20498;DHT22;10407;53.238;10.448;2023-02-27T16:51:56;5.10;99.90
20498;DHT22;10407;53.238;10.448;2023-02-27T16:54:24;4.90;99.90
20498;DHT22;10407;53.238;10.448;2023-02-27T16:56:51;4.80;99.90
20498;DHT22;10407;53.238;10.448;2023-02-27T16:59:38;4.70;99.90
20498;DHT22;10407;53.238;10.448;2023-02-27T17:02:05;4.50;99.90
20498;DHT22;10407;53.238;10.448;2023-02-27T17:04:33;4.40;99.90
20498;DHT22;10407;53.238;10.448;2023-02-27T17:07:02;4.40;99.90
20498;DHT22;10407;53.238;10.448;2023-02-27T17:09:30;4.30;99.90
20498;DHT22;10407;53.238;10.448;2023-02-27T17:11:57;4.20;99.90
20498;DHT22;10407;53.238;10.448;2023-02-27T17:14:25;4.00;99.90
20498;DHT22;10407;53.238;10.448;2023-02-27T17:16:52;3.90;99.90
20498;DHT22;10407;53.238;10.448;2023-02-27T17:19:20;3.90;99.90
20498;DHT22;10407;53.238;10.448;2023-02-27T17:21:48;3.80;99.90
20498;DHT22;10407;53.238;10.448;2023-02-27T17:24:17;3.70;99.90
20498;DHT22;10407;53.238;10.448;2023-02-27T17:26:45;3.70;99.90
20498;DHT22;10407;53.238;10.448;2023-02-27T17:29:12;3.70;99.90
20498;DHT22;10407;53.238;10.448;2023-02-27T17:31:40;3.70;99.90
20498;DHT22;10407;53.238;10.448;2023-02-27T17:34:08;3.70;99.90
20498;DHT22;10407;53.238;10.448;2023-02-27T17:36:36;3.60;99.90
20498;DHT22;10407;53.238;10.448;2023-02-27T17:39:04;3.50;99.90
20498;DHT22;10407;53.238;10.448;2023-02-27T17:41:32;3.40;99.90
20498;DHT22;10407;53.238;10.448;2023-02-27T17:44:00;3.30;99.90